createdAt,value
2023-09-08T00:00:56.552Z,19.70
2023-09-08T00:03:23.539Z,19.65
2023-09-08T00:05:50.939Z,19.68
2023-09-08T00:08:17.604Z,19.61
2023-09-08T00:10:43.962Z,19.60
2023-09-08T00:13:10.308Z,19.58
2023-09-08T00:15:36.682Z,19.53
2023-09-08T00:18:03.209Z,19.50
2023-09-08T00:20:29.715Z,19.47
2023-09-08T00:22:56.360Z,19.45
2023-09-08T00:25:22.786Z,19.39
2023-09-08T00:27:49.439Z,19.34
2023-09-08T00:30:15.917Z,19.33
2023-09-08T00:32:42.548Z,19.30
2023-09-08T00:35:09.434Z,19.29
2023-09-08T00:37:35.940Z,19.23
2023-09-08T00:40:05.201Z,19.17
2023-09-08T00:42:31.649Z,19.17
2023-09-08T00:44:57.997Z,19.11
2023-09-08T00:47:24.432Z,19.07
2023-09-08T00:49:50.897Z,19.13
2023-09-08T00:52:17.422Z,19.13
2023-09-08T00:54:43.849Z,19.09
2023-09-08T00:57:10.337Z,18.89
2023-09-08T00:59:36.928Z,18.85
2023-09-08T01:02:03.874Z,18.84
2023-09-08T01:04:30.698Z,18.90
2023-09-08T01:06:57.120Z,18.91
2023-09-08T01:09:23.586Z,18.82
2023-09-08T01:11:49.994Z,18.82
2023-09-08T01:14:16.625Z,18.81
2023-09-08T01:16:43.463Z,18.80
2023-09-08T01:19:09.902Z,18.81
2023-09-08T01:21:36.357Z,18.88
2023-09-08T01:24:02.699Z,18.97
2023-09-08T01:26:29.211Z,18.90
2023-09-08T01:28:55.672Z,18.90
2023-09-08T01:31:22.350Z,18.91
2023-09-08T01:33:48.813Z,18.92
2023-09-08T01:36:15.266Z,18.96
2023-09-08T01:38:41.987Z,18.95
2023-09-08T01:41:08.989Z,18.98
2023-09-08T01:43:35.648Z,19.02
2023-09-08T01:46:02.313Z,19.02
2023-09-08T01:48:29.226Z,18.97
2023-09-08T01:50:56.704Z,18.96
2023-09-08T01:53:23.237Z,18.93
2023-09-08T01:55:49.636Z,18.93
2023-09-08T01:58:16.107Z,18.91
2023-09-08T02:00:42.623Z,18.91
2023-09-08T02:03:10.492Z,18.91
2023-09-08T02:05:37.322Z,18.86
2023-09-08T02:08:03.817Z,18.81
2023-09-08T02:10:30.253Z,18.80
2023-09-08T02:12:58.744Z,18.76
2023-09-08T02:15:25.288Z,18.74
2023-09-08T02:17:51.778Z,18.69
2023-09-08T02:20:18.307Z,18.64
2023-09-08T02:22:44.947Z,18.66
2023-09-08T02:25:11.704Z,18.64
2023-09-08T02:27:38.277Z,18.62
2023-09-08T02:30:04.700Z,18.62
2023-09-08T02:32:31.123Z,18.61
2023-09-08T02:34:57.514Z,18.58
2023-09-08T02:37:23.889Z,18.56
2023-09-08T02:39:50.207Z,18.59
2023-09-08T02:42:16.582Z,18.56
2023-09-08T02:44:43.070Z,18.48
2023-09-08T02:47:09.503Z,18.43
2023-09-08T02:49:35.935Z,18.38
2023-09-08T02:52:02.496Z,18.36
2023-09-08T02:54:28.959Z,18.36
2023-09-08T02:56:55.515Z,18.36
2023-09-08T02:59:21.927Z,18.38
2023-09-08T03:01:48.439Z,18.40
2023-09-08T03:04:14.844Z,18.40
2023-09-08T03:06:41.283Z,18.39
2023-09-08T03:09:07.825Z,18.42
2023-09-08T03:11:34.241Z,18.44
2023-09-08T03:14:00.697Z,18.39
2023-09-08T03:16:27.313Z,18.32
2023-09-08T03:18:53.757Z,18.35
2023-09-08T03:21:20.230Z,18.30
2023-09-08T03:23:46.746Z,18.29
2023-09-08T03:26:13.342Z,18.22
2023-09-08T03:28:40.135Z,18.23
2023-09-08T03:31:06.665Z,18.18
2023-09-08T03:33:33.616Z,18.13
2023-09-08T03:36:00.204Z,18.15
2023-09-08T03:38:26.550Z,18.13
2023-09-08T03:40:52.892Z,18.16
2023-09-08T03:43:19.465Z,18.18
2023-09-08T03:45:45.946Z,18.35
2023-09-08T03:48:12.413Z,18.18
2023-09-08T03:50:38.852Z,18.09
2023-09-08T03:53:06.230Z,18.06
2023-09-08T03:55:32.689Z,17.99
2023-09-08T03:57:59.040Z,17.96
2023-09-08T04:00:25.481Z,17.93
2023-09-08T04:02:51.931Z,17.94
2023-09-08T04:05:19.177Z,17.94
2023-09-08T04:07:45.676Z,17.92
2023-09-08T04:10:12.431Z,17.89
2023-09-08T04:12:38.825Z,17.90
2023-09-08T04:15:14.001Z,17.85
2023-09-08T04:17:41.665Z,17.84
2023-09-08T04:20:08.065Z,17.86
2023-09-08T04:22:43.812Z,17.79
2023-09-08T04:25:10.173Z,17.77
2023-09-08T04:27:38.147Z,17.74
2023-09-08T04:30:04.789Z,17.74
2023-09-08T04:32:31.200Z,17.73
2023-09-08T04:34:57.570Z,17.73
2023-09-08T04:37:25.302Z,17.74
2023-09-08T04:39:51.656Z,17.73
2023-09-08T21:48:16.410Z,20.90
2023-09-08T21:50:42.994Z,20.92
2023-09-08T21:53:10.374Z,20.85
2023-09-08T21:55:36.826Z,20.78
2023-09-08T21:58:03.446Z,20.72
2023-09-08T22:00:29.789Z,20.70
2023-09-08T22:02:56.360Z,20.74
2023-09-08T22:05:23.035Z,20.78
2023-09-08T22:07:49.422Z,20.78
2023-09-08T22:10:15.985Z,20.80
2023-09-08T22:12:42.488Z,20.81
2023-09-08T22:15:08.850Z,20.79
2023-09-08T22:17:35.523Z,20.76
2023-09-08T22:20:02.125Z,20.71
2023-09-08T22:22:29.494Z,20.65
2023-09-08T22:24:56.270Z,20.57
2023-09-08T22:27:26.587Z,20.48
2023-09-08T22:29:55.376Z,20.43
2023-09-08T22:32:21.936Z,20.39
2023-09-08T22:34:48.509Z,20.30
2023-09-08T22:37:15.189Z,20.16
2023-09-08T22:39:42.302Z,20.08
2023-09-08T22:44:49.074Z,20.14
2023-09-08T22:47:15.437Z,20.06
2023-09-08T22:49:41.810Z,20.01
2023-09-08T22:52:08.233Z,19.97
2023-09-08T22:54:34.659Z,19.78
2023-09-08T22:57:01.245Z,19.75
2023-09-08T22:59:27.648Z,19.74
2023-09-08T23:01:54.060Z,19.77
2023-09-08T23:04:20.444Z,19.82
2023-09-08T23:06:46.865Z,19.86
2023-09-08T23:09:14.727Z,19.89
2023-09-08T23:11:41.205Z,19.90
2023-09-08T23:14:08.736Z,19.92
2023-09-08T23:16:35.175Z,19.91
2023-09-08T23:19:01.553Z,19.91
2023-09-08T23:21:27.913Z,19.82
2023-09-08T23:23:54.614Z,19.79
2023-09-08T23:26:21.026Z,19.78
2023-09-08T23:28:47.446Z,19.78
2023-09-08T23:31:13.990Z,19.75
2023-09-08T23:33:41.437Z,19.69
2023-09-08T23:36:08.516Z,19.60
2023-09-08T23:38:34.885Z,19.55
2023-09-08T23:41:01.312Z,19.50
2023-09-08T23:43:27.778Z,19.47
2023-09-08T23:45:54.207Z,19.40
2023-09-08T23:48:20.548Z,19.40
2023-09-08T23:50:47.110Z,19.39
2023-09-08T23:53:13.714Z,19.37
2023-09-08T23:55:40.340Z,19.30
2023-09-08T23:58:07.825Z,19.25
